Location:  
MeteoStar

Sort by weather type Sort by elevation Sort by visibility Sort from west to east north Sort from north to south Alphabetically Sort from strongest wind speed Sort from lowest to highest pressure Sort from highest to lowest dew point temperature Sort coolest temperatures to warmest Sort warm temperatures to coolest
 Metric

Current Observations for United Kingdom sorted by weather type

Leeming22:50ZFog36 360.061032.2NNW 4 33131
Inverness / Dalcross22:50ZFog27 270.251032.1N 1 2729
Leeds And Bradford22:50ZFog43 430.251031.4ENE 5 40682
Dunkeswell Aerodrome23:00ZMist40 3931024.6E 13 32826
Bedford23:00ZMist39 382.751029NE 7 34278
Nottingham Weather Centre23:00ZMist42 4031030.5ENE 10 36383
Bingley23:00ZMist43 N/A1.251031.5E 10 859
Loftus Samos23:00ZMist43 4241032.5ESE 8 38190
Eskdalemuir23:00ZMist39 3841032.8NNE 8 33793
Aboyne23:00ZMist35 352.51034.5SE 2 35459
Holbeach23:00ZMist44 4351030.1E 11 389
Waddington22:50ZMist39 391.751030.2ENE 7 34223
Leconfield22:50ZMist39 371.621031.1N 3 3919
Wittering22:50ZMist39 392.251029.3NE 8 33275
Fairford Royal Air Force Base22:46ZMist43 392.51027.3ENE 9 38285
Edinburgh Airport22:50ZMist41 4131032.2ENE 7 36134
Shawbury22:50ZMist41 4141028.2E 4 38249
Hawarden23:00ZMist38 3741029S 5 3432
Portglenone23:00ZHaze47 4361026.5ESE 6 44209
Castlederg23:00ZHaze45 4261025.5E 6 42167
High Wicombe Hqstc23:00ZHaze43 4051027.5ESE 13 36669
Church Lawford23:00ZHaze42 4051029E 4 40351
Pershore23:00ZHaze43 4051028.5ENE 6 39104
Sennybridge23:00ZHaze40 3751026.6NNE 5 361007
Marham22:50ZHaze45 4361029.2E 8 4175
Brize Norton22:50ZHaze43 4141027.3ENE 10 37288
St Athan Royal Air Force Base22:50ZHaze45 4161024.2E 16 38164
Boscombe Down22:50ZHaze41 3761025.3ENE 9 35406
Lerwick23:00ZCloudy48 4471035.6SSE 19 41269
Boulmer22:50ZCloudy48 4671033.1ESE 9 4475
Aberdeen / Dyce22:50ZCloudy48 4371034.2SSE 9 44213
Sumburgh Cape 22:50ZCloudy50 4571035.1SSE 15 4516
Spadeadam22:50ZCloudy43 4161031.6ESE 8 381066
Linton-On-Ouse22:50ZMostly Cloudy37 360.061031.1NE 3 3752
Leuchars22:50ZMostly Cloudy48 4581033.1ESE 11 4339
Glasgow Airport22:50ZMostly Cloudy45 4341031.1E 8 4126
Wick22:50ZMostly Cloudy48 4571033.2S 17 42127
Culdrose22:50ZMostly Cloudy50 45111020.2E 28 42255
Camborne23:00ZPartly Cloudy51 42101020.7ESE 14 Gusting to 30 46285
Kirkwall Airport22:50ZPartly Cloudy48 4671034.1SSE 10 4468
Newcastle 23:20ZPartly Cloudy46 4391032.2SE 5 44265
Cranwell22:50ZClear43 4131030.2NE 6 39219
Topcliffe Royal Air Force Base 22:50ZClear41 4121032.2WNW 2 4191
Northolt22:50ZClear45 4171027.2E 7 41124
Middle Wallop22:50ZClear43 3971026.2ENE 9 38298
Odiham22:50ZClear39 3771026.3ENE 5 35403
Wattisham22:50ZClear45 4171029.2E 8 41285
Mildenhall Royal Air Force Base22:56ZClear42 42121029.0ENE 5 3932
Lakenheath Royal Air Force Base22:56ZClear42 39131029.0ENE 7 3832
Benson22:50ZClear43 3961027.2ENE 7 39206
Stansted Airport22:50ZClear41 3961028.3ENE 9 35347
Norwich Weather Centre22:50ZClear43 4161030.1ENE 6 3945
Kinloss22:50ZClear32 30121032.1SSE 1 3222
Tain Range23:00ZClear30 30101032.0NNW 3 3013
Tiree22:50ZClear50 39101027.1ESE 17 4439
Stornoway22:50ZClear39 36251028.1N 1 3929
Scatsa / Shetland Island22:50ZClear48 4531034.1SSE 25 4072
Benbecula22:50ZClear52 3931027.1SE 15 4719
Prestwick Airport22:50ZClear43 3631030.1NNE 4 4165
Valley22:50ZClear46 4191026.1ENE 12 403
Pembrey Sands22:50ZClear45 3691024.1E 6 429
Humberside22:50ZClear46 4561031.2ENE 7 42101
Lydd Airport 22:50ZClear48 4161027.1E 18 419
London / Heathrow Airport22:50ZClear45 4161027.1ENE 4 4378
London City Airport22:50ZClear48 4361027.1ENE 7 4516
Jersey Airport22:50ZClear41 3771021.3E 18 32275
Guernsey Airport23:00ZClear44 3891021.7ESE 15 Gusting to 30 37334
Luton Airport 22:50ZClear39 3751027.4ENE 6 35524
Bristol / Lulsgate 22:50ZClear41 4151025.4ENE 12 34620
Cardiff-Wales Airport22:50ZClear45 4381025.2E 16 38219
Yeovilton22:50ZClear43 3781025.2ENE 10 3775
Manchester Airport22:50ZClear45 3941029.2N 5 42226
Belfast / Harbour22:50ZClear48 43101027.1E 8 4416


Atlantic
Tropical Watch